Time;durP1;ratioP1;P1;durP2;ratioP2;P2;SDS_P1;SDS_P2;PMS_P1;PMS_P2;Temp;Humidity;BMP_temperature;BMP_pressure;BME280_temperature;BME280_humidity;BME280_pressure;Samples;Min_cycle;Max_cycle;Signal;HPM_P1;HPM_P2
2021/09/13 00:01:16;;;;;;;18.70;11.52;;;;;;;;;;4992951;28;20104;-75
2021/09/13 00:03:43;;;;;;;20.40;11.80;;;;;;;;;;4993186;28;20567;-75
2021/09/13 00:06:09;;;;;;;21.15;13.00;;;;;;;;;;4992946;28;20123;-74
2021/09/13 00:08:34;;;;;;;19.55;13.48;;;;;;;;;;4993137;28;20498;-74
2021/09/13 00:11:00;;;;;;;22.73;13.10;;;;;;;;;;4991594;28;20015;-74
2021/09/13 00:13:25;;;;;;;19.02;11.38;;;;;;;;;;4992606;28;20033;-73
2021/09/13 00:15:51;;;;;;;22.20;13.15;;;;;;;;;;4992426;28;20141;-75
2021/09/13 00:18:17;;;;;;;19.00;12.52;;;;;;;;;;4974922;28;20412;-74
2021/09/13 00:20:43;;;;;;;23.40;13.25;;;;;;;;;;4992538;28;20085;-75
2021/09/13 00:23:08;;;;;;;21.70;13.13;;;;;;;;;;4992610;28;20457;-75
2021/09/13 00:25:34;;;;;;;21.83;12.45;;;;;;;;;;4975012;28;20022;-74
2021/09/13 00:27:59;;;;;;;18.40;11.88;;;;;;;;;;4992614;28;20030;-74
2021/09/13 00:30:25;;;;;;;18.75;11.95;;;;;;;;;;4974427;28;20125;-74
2021/09/13 00:32:50;;;;;;;19.67;12.50;;;;;;;;;;4992648;28;20041;-74
2021/09/13 00:35:16;;;;;;;18.33;12.68;;;;;;;;;;4992638;28;20049;-74
2021/09/13 00:37:42;;;;;;;21.73;12.52;;;;;;;;;;4975898;28;20117;-75
2021/09/13 00:40:08;;;;;;;18.17;12.13;;;;;;;;;;4974723;28;20414;-74
2021/09/13 00:42:33;;;;;;;18.48;12.05;;;;;;;;;;4992105;28;20026;-74
2021/09/13 00:45:00;;;;;;;20.67;12.02;;;;;;;;;;4974746;28;20072;-74
2021/09/13 00:47:26;;;;;;;21.40;13.07;;;;;;;;;;4991931;28;20073;-74
2021/09/13 00:49:51;;;;;;;23.33;13.77;;;;;;;;;;4992176;28;20026;-74
2021/09/13 00:52:18;;;;;;;20.90;12.13;;;;;;;;;;4992118;28;20034;-74
2021/09/13 00:54:45;;;;;;;20.10;13.45;;;;;;;;;;4991905;28;20026;-75
2021/09/13 00:57:11;;;;;;;18.45;11.70;;;;;;;;;;4974469;28;20034;-75
2021/09/13 00:59:36;;;;;;;17.25;12.70;;;;;;;;;;4974394;28;20378;-73
2021/09/13 01:02:02;;;;;;;21.77;13.35;;;;;;;;;;4992015;28;20061;-75
2021/09/13 01:04:27;;;;;;;20.65;13.38;;;;;;;;;;4974350;28;20077;-72
2021/09/13 01:06:54;;;;;;;20.02;14.38;;;;;;;;;;4991829;28;20360;-73
2021/09/13 01:09:19;;;;;;;20.55;13.55;;;;;;;;;;4991983;28;20034;-73
2021/09/13 01:11:45;;;;;;;20.48;13.85;;;;;;;;;;4974123;28;20034;-71
2021/09/13 01:14:11;;;;;;;19.52;14.27;;;;;;;;;;4974004;28;20112;-72
2021/09/13 01:16:36;;;;;;;21.73;13.95;;;;;;;;;;4991312;28;20031;-74
2021/09/13 01:19:02;;;;;;;18.83;12.82;;;;;;;;;;4991372;28;20071;-73
2021/09/13 01:21:31;;;;;;;21.40;13.55;;;;;;;;;;4991176;28;20161;-73
2021/09/13 01:23:56;;;;;;;21.60;13.38;;;;;;;;;;4991579;28;20516;-72
2021/09/13 01:26:23;;;;;;;22.30;13.68;;;;;;;;;;4991482;28;20027;-73
2021/09/13 01:28:48;;;;;;;20.70;13.40;;;;;;;;;;4973680;28;20030;-71
2021/09/13 01:31:14;;;;;;;24.75;15.70;;;;;;;;;;4991037;28;20041;-72
2021/09/13 01:33:39;;;;;;;22.38;14.23;;;;;;;;;;4991080;28;20026;-74
2021/09/13 01:36:05;;;;;;;21.02;13.65;;;;;;;;;;4991536;28;20022;-73
2021/09/13 01:38:32;;;;;;;20.38;13.52;;;;;;;;;;4973749;28;20390;-74
2021/09/13 01:40:57;;;;;;;23.75;16.05;;;;;;;;;;4973959;28;20022;-71
2021/09/13 01:43:23;;;;;;;20.48;12.23;;;;;;;;;;4973656;28;20033;-73
2021/09/13 01:45:48;;;;;;;22.27;13.25;;;;;;;;;;4973877;28;20026;-72
2021/09/13 01:48:14;;;;;;;22.80;14.23;;;;;;;;;;4990983;28;20420;-72
2021/09/13 01:50:40;;;;;;;22.38;14.02;;;;;;;;;;4973182;28;20054;-73
2021/09/13 01:53:06;;;;;;;18.15;13.02;;;;;;;;;;4990811;28;20414;-72
2021/09/13 01:55:31;;;;;;;20.92;14.07;;;;;;;;;;4972993;28;20048;-73
2021/09/13 01:57:57;;;;;;;22.67;13.52;;;;;;;;;;4990859;28;20542;-72
2021/09/13 02:00:23;;;;;;;24.40;13.75;;;;;;;;;;4991130;28;20022;-73
2021/09/13 02:02:48;;;;;;;22.58;14.20;;;;;;;;;;4990611;28;20061;-71
2021/09/13 02:05:14;;;;;;;20.65;13.15;;;;;;;;;;4973114;28;20023;-73
2021/09/13 02:07:39;;;;;;;22.95;14.30;;;;;;;;;;4973002;28;20052;-73
2021/09/13 02:10:06;;;;;;;20.40;14.10;;;;;;;;;;4973371;28;20030;-73
2021/09/13 02:12:31;;;;;;;24.63;14.93;;;;;;;;;;4990518;28;20678;-73
2021/09/13 02:14:57;;;;;;;25.33;13.80;;;;;;;;;;4990478;28;20026;-73
2021/09/13 02:17:22;;;;;;;25.08;15.60;;;;;;;;;;4990388;28;20490;-73
2021/09/13 02:19:48;;;;;;;19.70;13.43;;;;;;;;;;4990106;28;20035;-74
2021/09/13 02:22:15;;;;;;;21.92;14.13;;;;;;;;;;4973028;28;20050;-73
2021/09/13 02:24:40;;;;;;;23.38;13.88;;;;;;;;;;4990489;28;20026;-73
2021/09/13 02:27:06;;;;;;;22.13;13.27;;;;;;;;;;4973113;28;20390;-73
2021/09/13 02:29:32;;;;;;;22.70;14.13;;;;;;;;;;4972681;28;20069;-73
2021/09/13 02:31:57;;;;;;;23.27;14.40;;;;;;;;;;4990673;28;20082;-73
2021/09/13 02:34:23;;;;;;;23.23;13.98;;;;;;;;;;4991032;28;20037;-73
2021/09/13 02:36:48;;;;;;;20.10;13.55;;;;;;;;;;4990898;28;20037;-73
2021/09/13 02:39:13;;;;;;;23.90;14.45;;;;;;;;;;4989785;28;20042;-73
2021/09/13 02:41:39;;;;;;;22.02;13.02;;;;;;;;;;4996580;28;20056;-73
2021/09/13 02:44:05;;;;;;;20.25;13.57;;;;;;;;;;4996714;28;20105;-73
2021/09/13 02:46:31;;;;;;;23.27;14.93;;;;;;;;;;4996480;28;20022;-73
2021/09/13 02:48:56;;;;;;;28.08;13.98;;;;;;;;;;4979265;28;20506;-73
2021/09/13 02:51:22;;;;;;;21.52;14.57;;;;;;;;;;4996613;28;20453;-73
2021/09/13 02:53:48;;;;;;;21.95;13.48;;;;;;;;;;4996360;28;20027;-73
2021/09/13 02:56:13;;;;;;;22.98;14.45;;;;;;;;;;4978968;28;20031;-73
2021/09/13 02:58:39;;;;;;;24.75;13.88;;;;;;;;;;4978902;28;20030;-73
2021/09/13 03:01:05;;;;;;;19.23;13.07;;;;;;;;;;4978947;28;20470;-73
2021/09/13 03:03:30;;;;;;;21.08;13.98;;;;;;;;;;4978970;28;20077;-72
2021/09/13 03:05:55;;;;;;;20.83;13.48;;;;;;;;;;4979016;28;20036;-73
2021/09/13 03:08:21;;;;;;;23.02;14.63;;;;;;;;;;4996377;28;20490;-73
2021/09/13 03:10:47;;;;;;;24.52;13.77;;;;;;;;;;4978690;28;20034;-73
2021/09/13 03:13:12;;;;;;;21.35;13.18;;;;;;;;;;4996586;28;20190;-72
2021/09/13 03:15:38;;;;;;;24.23;13.98;;;;;;;;;;4996414;28;20030;-73
2021/09/13 03:18:03;;;;;;;22.45;13.95;;;;;;;;;;4978861;28;20062;-72
2021/09/13 03:20:29;;;;;;;22.90;14.55;;;;;;;;;;4978979;28;20054;-73
2021/09/13 03:22:54;;;;;;;22.45;13.95;;;;;;;;;;4996408;28;20062;-73
2021/09/13 03:25:20;;;;;;;18.63;13.38;;;;;;;;;;4996400;28;20046;-72
2021/09/13 03:27:46;;;;;;;23.10;14.05;;;;;;;;;;4978611;28;20026;-71
2021/09/13 03:30:12;;;;;;;19.33;13.30;;;;;;;;;;4978792;28;20466;-73
2021/09/13 03:32:38;;;;;;;24.35;15.00;;;;;;;;;;4978692;28;20176;-73
2021/09/13 03:35:04;;;;;;;23.05;14.25;;;;;;;;;;4978653;28;20109;-74
2021/09/13 03:37:29;;;;;;;25.38;14.70;;;;;;;;;;4996324;28;20038;-73
2021/09/13 03:39:56;;;;;;;24.33;13.45;;;;;;;;;;4994615;28;20567;-73
2021/09/13 03:42:22;;;;;;;20.13;13.95;;;;;;;;;;4996298;28;20026;-73
2021/09/13 03:44:47;;;;;;;26.17;14.65;;;;;;;;;;4997128;28;20030;-72
2021/09/13 03:47:13;;;;;;;24.77;15.02;;;;;;;;;;4996622;28;20056;-72
2021/09/13 03:49:38;;;;;;;21.92;14.75;;;;;;;;;;4996527;28;20108;-72
2021/09/13 03:52:08;;;;;;;22.92;15.32;;;;;;;;;;4975800;28;20511;-73
2021/09/13 03:54:37;;;;;;;24.25;15.05;;;;;;;;;;4993191;28;20116;-72
2021/09/13 03:57:04;;;;;;;24.33;15.35;;;;;;;;;;4993142;28;20030;-72
2021/09/13 03:59:30;;;;;;;25.13;14.75;;;;;;;;;;4975525;28;20038;-73
2021/09/13 04:01:57;;;;;;;22.25;13.60;;;;;;;;;;4975218;28;20027;-73
2021/09/13 04:04:24;;;;;;;22.48;13.68;;;;;;;;;;4992935;28;20022;-73
2021/09/13 04:07:02;;;;;;;20.95;12.55;;;;;;;;;;4992934;28;20026;-73
2021/09/13 04:11:57;;;;;;;18.33;11.23;;;;;;;;;;4992750;28;20034;-73
2021/09/13 04:14:24;;;;;;;20.80;13.38;;;;;;;;;;4992522;28;20390;-72
2021/09/13 04:16:52;;;;;;;26.15;12.93;;;;;;;;;;4974677;28;20034;-74
2021/09/13 04:19:17;;;;;;;18.98;12.40;;;;;;;;;;4975076;28;20030;-75
2021/09/13 04:21:43;;;;;;;21.08;12.63;;;;;;;;;;4975128;28;20034;-73
2021/09/13 04:24:09;;;;;;;21.88;13.60;;;;;;;;;;4993254;28;20034;-72
2021/09/13 04:26:34;;;;;;;24.40;13.68;;;;;;;;;;4975573;28;20089;-73
2021/09/13 04:29:01;;;;;;;23.02;12.85;;;;;;;;;;4992618;28;20095;-73
2021/09/13 04:31:28;;;;;;;23.60;14.05;;;;;;;;;;4993756;28;20075;-73
2021/09/13 04:33:54;;;;;;;21.73;13.32;;;;;;;;;;4993113;28;20034;-72
2021/09/13 04:36:20;;;;;;;20.02;13.07;;;;;;;;;;4992515;28;20026;-74
2021/09/13 04:38:46;;;;;;;24.42;13.85;;;;;;;;;;4974580;28;20084;-73
2021/09/13 04:41:12;;;;;;;23.80;13.38;;;;;;;;;;4974864;28;20041;-73
2021/09/13 04:43:38;;;;;;;21.48;13.50;;;;;;;;;;4992070;28;20100;-73
2021/09/13 04:46:03;;;;;;;18.45;13.15;;;;;;;;;;4992037;28;20033;-72
2021/09/13 04:48:30;;;;;;;27.15;13.10;;;;;;;;;;4992097;28;20034;-74
2021/09/13 04:50:56;;;;;;;22.83;12.85;;;;;;;;;;4974417;28;20565;-74
2021/09/13 04:53:21;;;;;;;22.30;13.45;;;;;;;;;;4992388;28;20038;-72
2021/09/13 04:55:47;;;;;;;28.15;13.98;;;;;;;;;;4991915;28;20386;-73
2021/09/13 04:58:13;;;;;;;21.10;13.65;;;;;;;;;;4991933;28;20402;-72
2021/09/13 05:00:39;;;;;;;24.50;14.70;;;;;;;;;;4991595;28;20124;-73
2021/09/13 05:03:04;;;;;;;22.92;14.35;;;;;;;;;;4991307;28;20109;-72
2021/09/13 05:05:30;;;;;;;23.40;13.95;;;;;;;;;;4974127;28;20467;-73
2021/09/13 05:07:55;;;;;;;22.25;13.68;;;;;;;;;;4991496;28;20122;-73
2021/09/13 05:10:21;;;;;;;28.23;14.73;;;;;;;;;;4991630;28;20030;-73
2021/09/13 05:12:46;;;;;;;30.27;14.50;;;;;;;;;;4991704;28;20037;-72
2021/09/13 05:15:12;;;;;;;25.35;19.58;;;;;;;;;;4974060;28;20118;-74
2021/09/13 05:17:38;;;;;;;25.27;13.30;;;;;;;;;;4991503;28;20101;-73
2021/09/13 05:20:04;;;;;;;19.63;11.88;;;;;;;;;;4991341;28;20520;-74
2021/09/13 05:22:30;;;;;;;20.88;13.48;;;;;;;;;;4990404;28;20032;-72
2021/09/13 05:24:56;;;;;;;22.10;13.50;;;;;;;;;;4991492;28;20038;-73
2021/09/13 05:27:22;;;;;;;21.75;13.23;;;;;;;;;;4974039;28;20034;-74
2021/09/13 05:29:47;;;;;;;26.67;14.93;;;;;;;;;;4973946;28;20057;-73
2021/09/13 05:32:13;;;;;;;23.92;13.07;;;;;;;;;;4991417;28;20030;-73
2021/09/13 05:34:38;;;;;;;22.63;12.88;;;;;;;;;;4973453;28;20031;-73
2021/09/13 05:37:04;;;;;;;22.10;13.77;;;;;;;;;;4990763;28;20030;-72
2021/09/13 05:39:30;;;;;;;30.17;15.25;;;;;;;;;;4991153;28;20104;-73
2021/09/13 05:41:56;;;;;;;22.98;14.27;;;;;;;;;;4990899;28;20435;-73
2021/09/13 05:44:22;;;;;;;27.30;16.08;;;;;;;;;;4991192;28;20023;-72
2021/09/13 05:46:47;;;;;;;22.80;13.43;;;;;;;;;;4990283;28;20462;-72
2021/09/13 05:49:13;;;;;;;23.17;13.90;;;;;;;;;;4990983;28;20026;-73
2021/09/13 05:51:42;;;;;;;22.23;12.82;;;;;;;;;;4990971;28;20426;-74
2021/09/13 05:54:08;;;;;;;22.77;14.32;;;;;;;;;;4990967;28;20523;-73
2021/09/13 05:56:34;;;;;;;21.75;13.18;;;;;;;;;;4991761;28;20026;-72
2021/09/13 05:58:59;;;;;;;28.88;14.93;;;;;;;;;;4990834;28;20041;-73
2021/09/13 06:01:25;;;;;;;18.08;12.63;;;;;;;;;;4973352;28;20481;-73
2021/09/13 06:03:50;;;;;;;22.05;14.52;;;;;;;;;;4972575;28;20026;-74
2021/09/13 06:06:16;;;;;;;20.13;13.35;;;;;;;;;;4990605;28;20479;-73
2021/09/13 06:08:42;;;;;;;30.80;15.18;;;;;;;;;;4990804;28;20038;-74
2021/09/13 06:11:07;;;;;;;23.38;13.27;;;;;;;;;;4989069;28;20025;-74
2021/09/13 06:13:33;;;;;;;19.60;14.15;;;;;;;;;;4987311;28;20377;-73
2021/09/13 06:16:00;;;;;;;22.45;13.07;;;;;;;;;;4966043;28;20041;-73
2021/09/13 06:18:26;;;;;;;22.83;13.40;;;;;;;;;;4967364;28;20406;-73
2021/09/13 06:20:51;;;;;;;42.70;26.30;;;;;;;;;;4969798;28;20026;-73
2021/09/13 06:23:17;;;;;;;20.30;13.52;;;;;;;;;;4968034;28;20030;-74
2021/09/13 06:25:44;;;;;;;23.70;14.07;;;;;;;;;;4958199;28;20599;-75
2021/09/13 06:28:11;;;;;;;17.65;12.98;;;;;;;;;;4944935;28;20218;-73
2021/09/13 06:30:36;;;;;;;22.73;13.07;;;;;;;;;;4968979;28;20522;-73
2021/09/13 06:33:02;;;;;;;21.15;12.65;;;;;;;;;;4966009;28;20031;-74
2021/09/13 06:35:28;;;;;;;28.45;14.82;;;;;;;;;;4962682;28;20107;-74
2021/09/13 06:37:53;;;;;;;23.65;13.20;;;;;;;;;;4962525;28;20046;-74
2021/09/13 06:40:19;;;;;;;24.80;15.63;;;;;;;;;;4955283;28;20035;-74
2021/09/13 06:42:44;;;;;;;20.45;12.88;;;;;;;;;;4964772;28;20057;-73
2021/09/13 06:45:17;;;;;;;23.15;13.90;;;;;;;;;;4952676;28;20105;-74
2021/09/13 06:47:46;;;;;;;20.48;13.40;;;;;;;;;;4956370;28;20039;-74
2021/09/13 06:50:27;;;;;;;24.40;14.68;;;;;;;;;;4958801;28;20047;-73
2021/09/13 06:52:55;;;;;;;18.77;13.50;;;;;;;;;;4965646;28;20071;-73
2021/09/13 06:55:22;;;;;;;23.23;14.23;;;;;;;;;;4950258;28;20039;-73
2021/09/13 06:57:49;;;;;;;18.98;14.07;;;;;;;;;;4966934;28;20035;-73
2021/09/13 07:00:16;;;;;;;19.33;13.55;;;;;;;;;;4952975;28;20026;-73
2021/09/13 07:02:45;;;;;;;28.27;14.68;;;;;;;;;;4962593;28;20038;-72
2021/09/13 07:05:11;;;;;;;20.92;14.20;;;;;;;;;;4948198;28;20523;-73
2021/09/13 07:07:37;;;;;;;20.70;13.38;;;;;;;;;;4954428;28;20034;-73
2021/09/13 07:10:05;;;;;;;21.40;12.98;;;;;;;;;;4956523;28;20034;-73
2021/09/13 07:12:31;;;;;;;22.80;14.10;;;;;;;;;;4967007;28;20033;-73
2021/09/13 07:14:57;;;;;;;21.35;13.38;;;;;;;;;;4956747;28;20034;-74
2021/09/13 07:17:22;;;;;;;23.70;15.02;;;;;;;;;;4947937;28;20035;-75
2021/09/13 07:19:51;;;;;;;25.38;14.98;;;;;;;;;;4963459;28;20030;-73
2021/09/13 07:22:16;;;;;;;24.42;15.27;;;;;;;;;;4946481;28;20028;-73
2021/09/13 07:24:43;;;;;;;23.10;14.00;;;;;;;;;;4951556;28;20035;-74
2021/09/13 07:27:10;;;;;;;22.90;14.07;;;;;;;;;;4955931;28;20066;-74
2021/09/13 07:29:38;;;;;;;22.98;14.88;;;;;;;;;;4970381;28;20058;-72
2021/09/13 07:32:04;;;;;;;30.17;14.20;;;;;;;;;;4969931;28;20027;-74
2021/09/13 07:34:30;;;;;;;20.92;13.05;;;;;;;;;;4958993;28;20027;-72
2021/09/13 07:36:56;;;;;;;25.27;13.05;;;;;;;;;;4975060;28;20082;-73
2021/09/13 07:39:25;;;;;;;22.27;13.38;;;;;;;;;;4967622;28;20483;-72
2021/09/13 07:41:50;;;;;;;22.15;12.18;;;;;;;;;;4969297;28;20436;-74
2021/09/13 07:44:17;;;;;;;23.02;13.77;;;;;;;;;;4953037;28;20121;-74
2021/09/13 07:46:43;;;;;;;18.35;13.20;;;;;;;;;;4969402;28;20279;-74
2021/09/13 07:49:09;;;;;;;23.27;12.32;;;;;;;;;;4961651;28;20035;-75
2021/09/13 07:51:36;;;;;;;19.27;13.05;;;;;;;;;;4953286;28;20030;-73
2021/09/13 07:54:03;;;;;;;16.77;11.90;;;;;;;;;;4967251;28;20035;-74
2021/09/13 07:56:29;;;;;;;19.05;11.73;;;;;;;;;;4967144;28;20038;-74
2021/09/13 07:58:54;;;;;;;22.02;12.55;;;;;;;;;;4950209;28;20027;-68
2021/09/13 08:01:21;;;;;;;652.85;458.70;;;;;;;;;;4964626;28;20030;-73
2021/09/13 08:03:47;;;;;;;34.45;21.88;;;;;;;;;;4953492;28;20031;-76
2021/09/13 08:06:13;;;;;;;26.05;13.32;;;;;;;;;;4969680;28;20092;-73
2021/09/13 08:08:38;;;;;;;20.60;13.43;;;;;;;;;;4956733;28;20814;-73
2021/09/13 08:11:06;;;;;;;24.00;13.43;;;;;;;;;;4967742;28;20541;-74
2021/09/13 08:13:34;;;;;;;53.85;16.42;;;;;;;;;;4947583;28;20049;-74
2021/09/13 08:15:59;;;;;;;16.15;11.07;;;;;;;;;;4954398;28;20092;-75
2021/09/13 08:18:25;;;;;;;17.02;10.65;;;;;;;;;;4946525;28;20039;-74
2021/09/13 08:20:51;;;;;;;16.08;11.25;;;;;;;;;;4948278;28;20516;-74
2021/09/13 08:23:16;;;;;;;27.42;11.77;;;;;;;;;;4973215;28;20022;-74
2021/09/13 08:25:42;;;;;;;14.52;11.07;;;;;;;;;;4951901;28;20122;-74
2021/09/13 08:28:12;;;;;;;17.92;10.85;;;;;;;;;;4970075;28;20038;-73
2021/09/13 08:30:38;;;;;;;18.13;12.05;;;;;;;;;;4967858;28;20442;-74
2021/09/13 08:33:03;;;;;;;20.67;11.57;;;;;;;;;;4969956;28;20043;-73
2021/09/13 08:35:29;;;;;;;23.05;12.35;;;;;;;;;;4973351;28;20141;-72
2021/09/13 08:37:55;;;;;;;23.75;12.00;;;;;;;;;;4968163;28;20081;-73
2021/09/13 08:40:20;;;;;;;23.00;13.40;;;;;;;;;;4957306;28;20023;-74
2021/09/13 08:42:49;;;;;;;21.55;14.70;;;;;;;;;;4968969;28;20050;-74
2021/09/13 08:45:20;;;;;;;22.08;12.45;;;;;;;;;;4950664;28;20164;-73
2021/09/13 08:47:58;;;;;;;38.10;14.60;;;;;;;;;;4942165;28;20039;-73
2021/09/13 08:50:35;;;;;;;21.90;13.20;;;;;;;;;;4952574;28;20129;-72
2021/09/13 08:53:02;;;;;;;16.85;12.00;;;;;;;;;;4954128;28;20838;-73
2021/09/13 08:55:28;;;;;;;26.17;14.80;;;;;;;;;;4953878;28;20031;-73
2021/09/13 08:57:54;;;;;;;19.00;12.75;;;;;;;;;;4963802;28;20452;-74
2021/09/13 09:00:20;;;;;;;21.38;12.57;;;;;;;;;;4959605;28;20035;-74
2021/09/13 09:02:48;;;;;;;24.83;15.32;;;;;;;;;;4972603;28;20522;-74
2021/09/13 09:05:13;;;;;;;23.65;15.32;;;;;;;;;;4972521;28;20121;-73
2021/09/13 09:07:53;;;;;;;28.08;13.95;;;;;;;;;;4977634;28;20117;-75
2021/09/13 09:10:25;;;;;;;22.73;14.82;;;;;;;;;;4966195;28;20042;-73
2021/09/13 09:13:10;;;;;;;22.23;13.75;;;;;;;;;;4968516;28;20022;-72
2021/09/13 09:15:53;;;;;;;21.77;14.52;;;;;;;;;;4963070;28;20026;-74
2021/09/13 09:18:22;;;;;;;21.33;13.77;;;;;;;;;;4956066;28;20030;-72
2021/09/13 09:20:47;;;;;;;30.80;14.25;;;;;;;;;;4952054;28;20153;-74
2021/09/13 09:23:13;;;;;;;20.50;13.93;;;;;;;;;;4972222;28;20046;-72
2021/09/13 09:25:40;;;;;;;25.25;14.55;;;;;;;;;;4970200;28;20037;-72
2021/09/13 09:28:12;;;;;;;19.40;12.80;;;;;;;;;;4965699;28;20022;-75
2021/09/13 09:30:47;;;;;;;20.33;12.20;;;;;;;;;;4964529;28;20055;-72
2021/09/13 09:33:19;;;;;;;19.88;12.90;;;;;;;;;;4968416;28;20030;-75
2021/09/13 09:35:50;;;;;;;21.38;12.43;;;;;;;;;;4969103;28;20034;-73
2021/09/13 09:38:35;;;;;;;;;;;;;;;;;;4967714;28;20121;-74
2021/09/13 09:41:12;;;;;;;15.25;11.10;;;;;;;;;;4971832;28;19999;-73
2021/09/13 09:44:11;;;;;;;18.73;12.13;;;;;;;;;;4968121;28;20069;-74
2021/09/13 09:46:40;;;;;;;22.73;12.90;;;;;;;;;;4929551;28;20047;-73
2021/09/13 09:49:18;;;;;;;21.23;12.25;;;;;;;;;;4957457;28;20035;-74
2021/09/13 09:51:53;;;;;;;16.90;11.02;;;;;;;;;;4937388;28;20149;-74
2021/09/13 09:54:24;;;;;;;19.67;11.45;;;;;;;;;;4949529;28;20035;-77
2021/09/13 09:56:58;;;;;;;16.65;11.73;;;;;;;;;;4961058;28;20711;-75
2021/09/13 09:59:24;;;;;;;17.83;11.57;;;;;;;;;;4959695;28;20026;-74
2021/09/13 10:01:57;;;;;;;22.65;11.57;;;;;;;;;;4966389;28;20035;-74
2021/09/13 10:04:28;;;;;;;20.52;13.35;;;;;;;;;;4965501;28;20069;-73
2021/09/13 10:07:01;;;;;;;19.02;11.07;;;;;;;;;;4949244;28;20027;-72
2021/09/13 10:09:30;;;;;;;18.30;11.73;;;;;;;;;;4961135;28;20037;-74
2021/09/13 10:11:59;;;;;;;21.20;12.48;;;;;;;;;;4950692;28;20022;-74
2021/09/13 10:14:27;;;;;;;21.00;12.13;;;;;;;;;;4939443;28;20042;-78
2021/09/13 10:16:54;;;;;;;20.20;12.32;;;;;;;;;;4974710;28;20026;-74
2021/09/13 10:19:22;;;;;;;17.67;11.45;;;;;;;;;;4960811;28;20121;-75
2021/09/13 10:21:49;;;;;;;18.17;10.45;;;;;;;;;;4965919;28;20038;-74
2021/09/13 10:24:18;;;;;;;17.55;11.68;;;;;;;;;;4961029;28;20023;-76
2021/09/13 10:26:49;;;;;;;15.73;9.73;;;;;;;;;;4939552;28;20070;-76
2021/09/13 10:29:17;;;;;;;;;;;;;;;;;;4951112;28;21410;-74
2021/09/13 10:31:46;;;;;;;17.50;10.80;;;;;;;;;;4963893;28;19925;-74
2021/09/13 10:34:23;;;;;;;12.15;9.30;;;;;;;;;;4957518;28;20491;-75
2021/09/13 10:37:06;;;;;;;14.48;9.60;;;;;;;;;;4957559;28;20043;-73
2021/09/13 10:39:59;;;;;;;14.85;9.70;;;;;;;;;;4950854;28;20208;-72
2021/09/13 10:42:34;;;;;;;10.55;9.07;;;;;;;;;;4959014;28;20037;-74
2021/09/13 10:45:29;;;;;;;9.88;8.27;;;;;;;;;;4944626;28;20030;-75
2021/09/13 10:47:54;;;;;;;10.77;7.97;;;;;;;;;;4961402;28;20027;-72
2021/09/13 10:50:35;;;;;;;10.38;7.57;;;;;;;;;;4956718;28;20407;-73
2021/09/13 10:53:03;;;;;;;10.43;7.35;;;;;;;;;;4963856;28;20042;-74
2021/09/13 10:55:36;;;;;;;14.30;9.32;;;;;;;;;;4948396;28;20424;-73
2021/09/13 10:58:33;;;;;;;22.80;12.75;;;;;;;;;;4949322;28;20027;-75
2021/09/13 11:01:01;;;;;;;23.95;13.23;;;;;;;;;;4961973;28;20125;-74
2021/09/13 11:03:31;;;;;;;26.77;13.82;;;;;;;;;;4959044;28;20038;-73
2021/09/13 11:06:16;;;;;;;22.10;13.50;;;;;;;;;;4971802;28;20034;-74
2021/09/13 11:08:53;;;;;;;25.33;14.88;;;;;;;;;;4952980;28;21183;-74
2021/09/13 11:11:33;;;;;;;23.80;13.80;;;;;;;;;;4969138;28;20033;-76
2021/09/13 11:14:01;;;;;;;21.98;12.30;;;;;;;;;;4951614;28;20038;-74
2021/09/13 11:16:28;;;;;;;16.17;10.82;;;;;;;;;;4961918;28;20023;-75
2021/09/13 11:18:55;;;;;;;16.52;11.20;;;;;;;;;;4942354;28;20486;-72
2021/09/13 11:21:28;;;;;;;21.27;12.25;;;;;;;;;;4953014;28;20030;-75
2021/09/13 11:24:02;;;;;;;14.30;11.07;;;;;;;;;;4966944;28;20018;-75
2021/09/13 11:26:45;;;;;;;17.25;10.65;;;;;;;;;;4951736;28;20106;-73
2021/09/13 11:29:38;;;;;;;15.98;10.57;;;;;;;;;;4961946;28;20106;-75
2021/09/13 11:32:12;;;;;;;15.45;10.40;;;;;;;;;;4969349;28;20601;-74
2021/09/13 11:34:40;;;;;;;17.52;11.50;;;;;;;;;;4944842;28;20041;-75
2021/09/13 11:37:17;;;;;;;22.38;11.95;;;;;;;;;;4971236;28;20035;-74
2021/09/13 11:39:47;;;;;;;18.83;11.40;;;;;;;;;;4964775;28;20034;-74
2021/09/13 11:42:22;;;;;;;20.85;12.73;;;;;;;;;;4961359;28;20034;-75
2021/09/13 11:44:57;;;;;;;20.05;11.38;;;;;;;;;;4966605;28;20031;-74
2021/09/13 11:47:27;;;;;;;14.82;10.85;;;;;;;;;;4949470;28;20053;-76
2021/09/13 11:49:56;;;;;;;16.38;11.70;;;;;;;;;;4962702;28;20069;-72
2021/09/13 11:52:28;;;;;;;17.83;11.00;;;;;;;;;;4969114;28;20030;-74
2021/09/13 11:55:06;;;;;;;18.60;12.45;;;;;;;;;;4968854;28;20098;-74
2021/09/13 11:57:42;;;;;;;21.95;12.80;;;;;;;;;;4971775;28;20033;-72
2021/09/13 12:00:13;;;;;;;16.88;11.35;;;;;;;;;;4961032;28;20026;-75
2021/09/13 12:02:42;;;;;;;19.65;11.93;;;;;;;;;;4961769;28;20368;-73
2021/09/13 12:05:11;;;;;;;20.90;13.18;;;;;;;;;;4968552;28;20066;-74
2021/09/13 12:07:37;;;;;;;25.63;15.50;;;;;;;;;;4948503;28;20372;-75
2021/09/13 12:10:03;;;;;;;18.88;12.88;;;;;;;;;;4963051;28;20038;-74
2021/09/13 12:12:31;;;;;;;22.90;13.35;;;;;;;;;;4953025;28;20046;-75
2021/09/13 12:15:02;;;;;;;17.90;13.35;;;;;;;;;;4937712;28;20038;-72
2021/09/13 12:17:40;;;;;;;17.40;12.07;;;;;;;;;;4951281;28;20482;-74
2021/09/13 12:20:29;;;;;;;19.67;11.82;;;;;;;;;;4952578;28;20295;-74
2021/09/13 12:23:06;;;;;;;17.90;11.57;;;;;;;;;;4961176;28;20081;-74
2021/09/13 12:25:43;;;;;;;16.05;10.90;;;;;;;;;;4959717;28;20031;-73
2021/09/13 12:28:10;;;;;;;19.63;10.70;;;;;;;;;;4964814;28;20113;-73
2021/09/13 12:30:39;;;;;;;17.00;9.93;;;;;;;;;;4960989;28;20054;-74
2021/09/13 12:33:09;;;;;;;17.85;10.32;;;;;;;;;;4968024;28;20771;-75
2021/09/13 12:35:44;;;;;;;15.70;10.68;;;;;;;;;;4956241;28;20034;-75
2021/09/13 12:38:14;;;;;;;21.60;11.88;;;;;;;;;;4962542;28;20395;-74
2021/09/13 12:40:53;;;;;;;17.83;11.63;;;;;;;;;;4964083;28;20686;-74
2021/09/13 12:43:23;;;;;;;21.98;11.68;;;;;;;;;;4968871;28;20059;-76
2021/09/13 12:45:49;;;;;;;20.63;12.30;;;;;;;;;;4953028;28;20036;-74
2021/09/13 12:48:27;;;;;;;17.77;12.68;;;;;;;;;;4965730;28;20034;-77
2021/09/13 12:50:55;;;;;;;16.00;12.27;;;;;;;;;;4964353;28;21513;-73
2021/09/13 12:53:30;;;;;;;21.05;12.27;;;;;;;;;;4952094;28;20029;-74
2021/09/13 12:56:13;;;;;;;19.23;11.82;;;;;;;;;;4968580;28;20026;-75
2021/09/13 12:58:38;;;;;;;20.92;11.80;;;;;;;;;;4960960;28;20146;-74
2021/09/13 13:01:07;;;;;;;24.27;12.98;;;;;;;;;;4948178;28;20026;-73
2021/09/13 13:03:34;;;;;;;22.17;12.18;;;;;;;;;;4964039;28;20027;-75
2021/09/13 13:06:00;;;;;;;20.75;13.10;;;;;;;;;;4954850;28;20045;-73
2021/09/13 13:08:27;;;;;;;18.85;12.45;;;;;;;;;;4932657;28;20137;-74
2021/09/13 13:10:55;;;;;;;21.48;11.85;;;;;;;;;;4966036;28;20086;-73
2021/09/13 13:13:22;;;;;;;17.48;11.80;;;;;;;;;;4960512;28;20038;-74
2021/09/13 13:15:49;;;;;;;26.95;14.85;;;;;;;;;;4967643;28;20030;-74
2021/09/13 13:18:17;;;;;;;25.00;11.23;;;;;;;;;;4956017;28;20026;-76
2021/09/13 13:20:48;;;;;;;15.43;11.23;;;;;;;;;;4958623;28;20043;-74
2021/09/13 13:23:14;;;;;;;15.90;11.52;;;;;;;;;;4963412;28;20043;-75
2021/09/13 13:25:45;;;;;;;18.35;11.02;;;;;;;;;;4952369;28;20750;-73
2021/09/13 13:28:11;;;;;;;14.40;10.18;;;;;;;;;;4958990;28;20026;-74
2021/09/13 13:30:37;;;;;;;15.63;9.48;;;;;;;;;;4968586;28;20058;-75
2021/09/13 13:33:05;;;;;;;18.10;10.35;;;;;;;;;;4969089;28;20106;-72
2021/09/13 13:35:36;;;;;;;22.25;10.25;;;;;;;;;;4970520;28;20031;-73
2021/09/13 13:38:04;;;;;;;11.40;9.73;;;;;;;;;;4949268;28;20117;-72
2021/09/13 13:40:30;;;;;;;17.25;10.27;;;;;;;;;;4961283;28;20511;-74
2021/09/13 13:42:57;;;;;;;15.75;10.32;;;;;;;;;;4951548;28;20174;-74
2021/09/13 13:45:23;;;;;;;14.45;10.05;;;;;;;;;;4978360;28;20030;-74
2021/09/13 13:47:48;;;;;;;15.85;9.50;;;;;;;;;;4955524;28;20450;-74
2021/09/13 13:50:15;;;;;;;13.30;9.13;;;;;;;;;;4980521;28;20026;-74
2021/09/13 13:52:41;;;;;;;16.05;8.90;;;;;;;;;;4956771;28;20037;-74
2021/09/13 13:55:08;;;;;;;17.30;8.55;;;;;;;;;;4964408;28;20062;-75
2021/09/13 13:57:35;;;;;;;13.27;8.32;;;;;;;;;;4968431;28;20535;-74
2021/09/13 14:00:02;;;;;;;15.63;8.25;;;;;;;;;;4969031;28;20030;-74
2021/09/13 14:02:27;;;;;;;11.68;8.43;;;;;;;;;;4936599;28;20045;-74
2021/09/13 14:04:53;;;;;;;27.08;16.73;;;;;;;;;;4969155;28;20026;-74
2021/09/13 14:07:19;;;;;;;19.05;8.63;;;;;;;;;;4970732;28;20031;-74
2021/09/13 14:09:44;;;;;;;9.93;7.55;;;;;;;;;;4970429;28;20089;-74
2021/09/13 14:12:11;;;;;;;16.55;9.23;;;;;;;;;;4965077;28;20030;-73
2021/09/13 14:14:36;;;;;;;11.15;8.85;;;;;;;;;;4976568;28;20533;-73
2021/09/13 14:17:02;;;;;;;14.82;10.23;;;;;;;;;;4978320;28;20038;-73
2021/09/13 14:19:28;;;;;;;12.57;7.85;;;;;;;;;;4974002;28;20019;-73
2021/09/13 14:21:53;;;;;;;13.02;7.65;;;;;;;;;;4955854;28;20053;-74
2021/09/13 14:24:22;;;;;;;13.65;8.68;;;;;;;;;;4972409;28;20506;-73
2021/09/13 14:26:47;;;;;;;18.15;10.02;;;;;;;;;;4969889;28;20402;-76